sensor_id;sensor_type;location;lat;lon;timestamp;P1;durP1;ratioP1;P2;durP2;ratioP2
2720;SDS011;1368;49.484;11.112;2023-04-25T00:01:20;8.97;;;6.60;;
2720;SDS011;1368;49.484;11.112;2023-04-25T00:03:46;8.90;;;6.17;;
2720;SDS011;1368;49.484;11.112;2023-04-25T00:06:12;8.33;;;6.80;;
2720;SDS011;1368;49.484;11.112;2023-04-25T00:08:39;8.30;;;6.60;;
2720;SDS011;1368;49.484;11.112;2023-04-25T00:11:05;8.27;;;6.67;;
2720;SDS011;1368;49.484;11.112;2023-04-25T00:13:30;10.60;;;7.50;;
2720;SDS011;1368;49.484;11.112;2023-04-25T00:15:56;10.47;;;6.87;;
2720;SDS011;1368;49.484;11.112;2023-04-25T00:18:22;8.80;;;6.33;;
2720;SDS011;1368;49.484;11.112;2023-04-25T00:20:48;9.57;;;7.00;;
2720;SDS011;1368;49.484;11.112;2023-04-25T00:23:15;8.90;;;6.93;;
2720;SDS011;1368;49.484;11.112;2023-04-25T00:25:42;9.20;;;7.10;;
2720;SDS011;1368;49.484;11.112;2023-04-25T00:28:09;8.90;;;6.53;;
2720;SDS011;1368;49.484;11.112;2023-04-25T00:30:34;8.50;;;6.70;;
2720;SDS011;1368;49.484;11.112;2023-04-25T00:33:00;8.27;;;6.67;;
2720;SDS011;1368;49.484;11.112;2023-04-25T00:35:26;8.60;;;6.43;;
2720;SDS011;1368;49.484;11.112;2023-04-25T00:37:51;8.67;;;6.17;;
2720;SDS011;1368;49.484;11.112;2023-04-25T00:40:17;7.77;;;5.00;;
2720;SDS011;1368;49.484;11.112;2023-04-25T00:42:42;11.37;;;5.80;;
2720;SDS011;1368;49.484;11.112;2023-04-25T00:45:09;7.90;;;6.03;;
2720;SDS011;1368;49.484;11.112;2023-04-25T00:47:39;10.60;;;6.77;;
2720;SDS011;1368;49.484;11.112;2023-04-25T00:50:05;7.50;;;6.03;;
2720;SDS011;1368;49.484;11.112;2023-04-25T00:52:32;9.63;;;6.60;;
2720;SDS011;1368;49.484;11.112;2023-04-25T00:54:57;7.37;;;5.53;;
2720;SDS011;1368;49.484;11.112;2023-04-25T00:57:23;7.90;;;6.43;;
2720;SDS011;1368;49.484;11.112;2023-04-25T00:59:50;8.33;;;5.83;;
2720;SDS011;1368;49.484;11.112;2023-04-25T01:02:17;8.97;;;5.80;;
2720;SDS011;1368;49.484;11.112;2023-04-25T01:04:43;7.50;;;5.83;;
2720;SDS011;1368;49.484;11.112;2023-04-25T01:07:10;6.60;;;5.90;;
2720;SDS011;1368;49.484;11.112;2023-04-25T01:09:35;10.23;;;6.97;;
2720;SDS011;1368;49.484;11.112;2023-04-25T01:12:02;7.90;;;5.67;;
2720;SDS011;1368;49.484;11.112;2023-04-25T01:14:28;7.33;;;6.20;;
2720;SDS011;1368;49.484;11.112;2023-04-25T01:16:54;7.87;;;6.03;;
2720;SDS011;1368;49.484;11.112;2023-04-25T01:19:20;8.20;;;5.20;;
2720;SDS011;1368;49.484;11.112;2023-04-25T01:21:46;7.90;;;5.53;;
2720;SDS011;1368;49.484;11.112;2023-04-25T01:24:12;6.97;;;5.13;;
2720;SDS011;1368;49.484;11.112;2023-04-25T01:26:38;10.57;;;5.50;;
2720;SDS011;1368;49.484;11.112;2023-04-25T01:29:05;9.30;;;5.73;;
2720;SDS011;1368;49.484;11.112;2023-04-25T01:31:32;6.70;;;5.63;;
2720;SDS011;1368;49.484;11.112;2023-04-25T01:34:00;7.00;;;5.60;;
2720;SDS011;1368;49.484;11.112;2023-04-25T01:36:25;6.13;;;5.50;;
2720;SDS011;1368;49.484;11.112;2023-04-25T01:38:52;7.30;;;5.70;;
2720;SDS011;1368;49.484;11.112;2023-04-25T01:41:17;9.23;;;5.23;;
2720;SDS011;1368;49.484;11.112;2023-04-25T01:43:43;6.90;;;5.67;;
2720;SDS011;1368;49.484;11.112;2023-04-25T01:46:10;8.73;;;6.20;;
2720;SDS011;1368;49.484;11.112;2023-04-25T01:48:37;10.67;;;6.20;;
2720;SDS011;1368;49.484;11.112;2023-04-25T01:51:02;9.47;;;6.17;;
2720;SDS011;1368;49.484;11.112;2023-04-25T01:53:28;8.33;;;5.70;;
2720;SDS011;1368;49.484;11.112;2023-04-25T01:55:54;6.83;;;6.10;;
2720;SDS011;1368;49.484;11.112;2023-04-25T01:58:20;8.80;;;5.10;;
2720;SDS011;1368;49.484;11.112;2023-04-25T02:00:46;7.30;;;5.57;;
2720;SDS011;1368;49.484;11.112;2023-04-25T02:03:11;9.37;;;6.30;;
2720;SDS011;1368;49.484;11.112;2023-04-25T02:05:37;8.43;;;6.00;;
2720;SDS011;1368;49.484;11.112;2023-04-25T02:08:04;7.50;;;5.20;;
2720;SDS011;1368;49.484;11.112;2023-04-25T02:10:31;7.47;;;5.60;;
2720;SDS011;1368;49.484;11.112;2023-04-25T02:12:57;8.60;;;5.40;;
2720;SDS011;1368;49.484;11.112;2023-04-25T02:15:23;6.60;;;5.57;;
2720;SDS011;1368;49.484;11.112;2023-04-25T02:17:48;6.20;;;5.50;;
2720;SDS011;1368;49.484;11.112;2023-04-25T02:20:14;8.03;;;6.77;;
2720;SDS011;1368;49.484;11.112;2023-04-25T02:22:41;7.40;;;6.00;;
2720;SDS011;1368;49.484;11.112;2023-04-25T02:25:07;7.87;;;6.63;;
2720;SDS011;1368;49.484;11.112;2023-04-25T02:27:34;7.40;;;5.60;;
2720;SDS011;1368;49.484;11.112;2023-04-25T02:29:59;8.67;;;6.57;;
2720;SDS011;1368;49.484;11.112;2023-04-25T02:32:25;7.50;;;5.50;;
2720;SDS011;1368;49.484;11.112;2023-04-25T02:34:51;6.50;;;5.50;;
2720;SDS011;1368;49.484;11.112;2023-04-25T02:37:17;9.27;;;6.20;;
2720;SDS011;1368;49.484;11.112;2023-04-25T02:39:43;10.60;;;6.10;;
2720;SDS011;1368;49.484;11.112;2023-04-25T02:42:08;7.23;;;5.73;;
2720;SDS011;1368;49.484;11.112;2023-04-25T02:44:34;9.10;;;6.90;;
2720;SDS011;1368;49.484;11.112;2023-04-25T02:46:59;9.03;;;6.67;;
2720;SDS011;1368;49.484;11.112;2023-04-25T02:49:25;8.53;;;6.87;;
2720;SDS011;1368;49.484;11.112;2023-04-25T02:51:50;8.43;;;6.77;;
2720;SDS011;1368;49.484;11.112;2023-04-25T02:54:16;7.53;;;6.30;;
2720;SDS011;1368;49.484;11.112;2023-04-25T02:56:41;8.83;;;6.47;;
2720;SDS011;1368;49.484;11.112;2023-04-25T02:59:07;9.20;;;6.80;;
2720;SDS011;1368;49.484;11.112;2023-04-25T03:01:32;13.43;;;7.50;;
2720;SDS011;1368;49.484;11.112;2023-04-25T03:03:58;10.40;;;7.67;;
2720;SDS011;1368;49.484;11.112;2023-04-25T03:06:23;10.13;;;7.83;;
2720;SDS011;1368;49.484;11.112;2023-04-25T03:08:49;8.73;;;7.40;;
2720;SDS011;1368;49.484;11.112;2023-04-25T03:11:15;11.10;;;8.00;;
2720;SDS011;1368;49.484;11.112;2023-04-25T03:13:40;10.93;;;8.00;;
2720;SDS011;1368;49.484;11.112;2023-04-25T03:16:06;11.60;;;8.27;;
2720;SDS011;1368;49.484;11.112;2023-04-25T03:18:31;11.20;;;9.47;;
2720;SDS011;1368;49.484;11.112;2023-04-25T03:20:57;12.73;;;9.00;;
2720;SDS011;1368;49.484;11.112;2023-04-25T03:23:22;12.03;;;9.83;;
2720;SDS011;1368;49.484;11.112;2023-04-25T03:25:48;13.50;;;10.00;;
2720;SDS011;1368;49.484;11.112;2023-04-25T03:28:13;11.60;;;10.03;;
2720;SDS011;1368;49.484;11.112;2023-04-25T03:30:39;13.17;;;10.30;;
2720;SDS011;1368;49.484;11.112;2023-04-25T03:33:05;10.93;;;9.13;;
2720;SDS011;1368;49.484;11.112;2023-04-25T03:35:30;14.63;;;11.37;;
2720;SDS011;1368;49.484;11.112;2023-04-25T03:37:56;13.50;;;11.90;;
2720;SDS011;1368;49.484;11.112;2023-04-25T03:40:21;13.53;;;10.97;;
2720;SDS011;1368;49.484;11.112;2023-04-25T03:42:47;13.43;;;9.27;;
2720;SDS011;1368;49.484;11.112;2023-04-25T03:45:12;18.50;;;11.60;;
2720;SDS011;1368;49.484;11.112;2023-04-25T03:47:38;21.37;;;11.00;;
2720;SDS011;1368;49.484;11.112;2023-04-25T03:50:04;15.97;;;10.50;;
2720;SDS011;1368;49.484;11.112;2023-04-25T03:52:30;12.87;;;10.00;;
2720;SDS011;1368;49.484;11.112;2023-04-25T03:54:55;13.73;;;10.93;;
2720;SDS011;1368;49.484;11.112;2023-04-25T03:57:21;13.60;;;10.60;;
2720;SDS011;1368;49.484;11.112;2023-04-25T03:59:46;14.30;;;11.10;;
2720;SDS011;1368;49.484;11.112;2023-04-25T04:02:12;17.67;;;10.47;;
2720;SDS011;1368;49.484;11.112;2023-04-25T04:04:38;15.40;;;10.07;;
2720;SDS011;1368;49.484;11.112;2023-04-25T04:07:03;12.90;;;10.20;;
2720;SDS011;1368;49.484;11.112;2023-04-25T04:09:29;13.50;;;11.43;;
2720;SDS011;1368;49.484;11.112;2023-04-25T04:11:54;17.20;;;11.00;;
2720;SDS011;1368;49.484;11.112;2023-04-25T04:14:20;12.40;;;9.93;;
2720;SDS011;1368;49.484;11.112;2023-04-25T04:16:45;12.13;;;9.67;;
2720;SDS011;1368;49.484;11.112;2023-04-25T04:19:11;14.13;;;10.80;;
2720;SDS011;1368;49.484;11.112;2023-04-25T04:21:36;13.63;;;10.13;;
2720;SDS011;1368;49.484;11.112;2023-04-25T04:24:02;12.60;;;10.40;;
2720;SDS011;1368;49.484;11.112;2023-04-25T04:26:28;13.50;;;10.10;;
2720;SDS011;1368;49.484;11.112;2023-04-25T04:28:54;13.60;;;10.43;;
2720;SDS011;1368;49.484;11.112;2023-04-25T04:31:20;18.60;;;11.33;;
2720;SDS011;1368;49.484;11.112;2023-04-25T04:33:46;13.73;;;11.80;;
2720;SDS011;1368;49.484;11.112;2023-04-25T04:36:12;13.80;;;10.50;;
2720;SDS011;1368;49.484;11.112;2023-04-25T04:38:38;12.67;;;9.80;;
2720;SDS011;1368;49.484;11.112;2023-04-25T04:41:03;17.10;;;10.70;;
2720;SDS011;1368;49.484;11.112;2023-04-25T04:43:29;15.03;;;10.83;;
2720;SDS011;1368;49.484;11.112;2023-04-25T04:45:55;15.67;;;11.73;;
2720;SDS011;1368;49.484;11.112;2023-04-25T04:48:23;17.23;;;11.70;;
2720;SDS011;1368;49.484;11.112;2023-04-25T04:50:49;15.07;;;11.63;;
2720;SDS011;1368;49.484;11.112;2023-04-25T04:53:15;16.70;;;11.40;;
2720;SDS011;1368;49.484;11.112;2023-04-25T04:55:40;14.70;;;10.60;;
2720;SDS011;1368;49.484;11.112;2023-04-25T04:58:06;12.87;;;10.97;;
2720;SDS011;1368;49.484;11.112;2023-04-25T05:00:32;15.80;;;10.30;;
2720;SDS011;1368;49.484;11.112;2023-04-25T05:02:58;13.67;;;10.53;;
2720;SDS011;1368;49.484;11.112;2023-04-25T05:05:24;16.07;;;10.97;;
2720;SDS011;1368;49.484;11.112;2023-04-25T05:07:49;16.70;;;12.23;;
2720;SDS011;1368;49.484;11.112;2023-04-25T05:10:16;16.60;;;12.30;;
2720;SDS011;1368;49.484;11.112;2023-04-25T05:12:45;16.07;;;11.80;;
2720;SDS011;1368;49.484;11.112;2023-04-25T05:15:11;15.90;;;11.40;;
2720;SDS011;1368;49.484;11.112;2023-04-25T05:17:37;14.93;;;11.10;;
2720;SDS011;1368;49.484;11.112;2023-04-25T05:20:04;13.63;;;10.67;;
2720;SDS011;1368;49.484;11.112;2023-04-25T05:22:30;15.73;;;12.00;;
2720;SDS011;1368;49.484;11.112;2023-04-25T05:24:56;14.53;;;10.80;;
2720;SDS011;1368;49.484;11.112;2023-04-25T05:27:21;13.67;;;11.27;;
2720;SDS011;1368;49.484;11.112;2023-04-25T05:29:47;13.73;;;10.80;;
2720;SDS011;1368;49.484;11.112;2023-04-25T05:32:13;15.87;;;11.93;;
2720;SDS011;1368;49.484;11.112;2023-04-25T05:34:38;13.77;;;10.20;;
2720;SDS011;1368;49.484;11.112;2023-04-25T05:37:04;16.40;;;11.63;;
2720;SDS011;1368;49.484;11.112;2023-04-25T05:39:30;12.87;;;10.20;;
2720;SDS011;1368;49.484;11.112;2023-04-25T05:41:56;14.80;;;11.20;;
2720;SDS011;1368;49.484;11.112;2023-04-25T05:44:21;13.47;;;9.90;;
2720;SDS011;1368;49.484;11.112;2023-04-25T05:46:47;13.70;;;10.30;;
2720;SDS011;1368;49.484;11.112;2023-04-25T05:49:12;13.40;;;9.80;;
2720;SDS011;1368;49.484;11.112;2023-04-25T05:51:38;15.20;;;12.30;;
2720;SDS011;1368;49.484;11.112;2023-04-25T05:54:03;13.30;;;10.00;;
2720;SDS011;1368;49.484;11.112;2023-04-25T05:56:29;12.83;;;10.97;;
2720;SDS011;1368;49.484;11.112;2023-04-25T05:58:55;13.17;;;10.50;;
2720;SDS011;1368;49.484;11.112;2023-04-25T06:01:22;14.43;;;10.80;;
2720;SDS011;1368;49.484;11.112;2023-04-25T06:03:48;13.00;;;10.07;;
2720;SDS011;1368;49.484;11.112;2023-04-25T06:06:13;14.10;;;10.77;;
2720;SDS011;1368;49.484;11.112;2023-04-25T06:08:39;13.07;;;9.10;;
2720;SDS011;1368;49.484;11.112;2023-04-25T06:11:05;12.80;;;8.87;;
2720;SDS011;1368;49.484;11.112;2023-04-25T06:13:31;10.00;;;8.30;;
2720;SDS011;1368;49.484;11.112;2023-04-25T06:15:57;12.03;;;8.83;;
2720;SDS011;1368;49.484;11.112;2023-04-25T06:18:22;12.10;;;9.03;;
2720;SDS011;1368;49.484;11.112;2023-04-25T06:20:48;12.97;;;10.00;;
2720;SDS011;1368;49.484;11.112;2023-04-25T06:23:13;15.47;;;9.47;;
2720;SDS011;1368;49.484;11.112;2023-04-25T06:25:39;13.50;;;9.40;;
2720;SDS011;1368;49.484;11.112;2023-04-25T06:28:04;13.83;;;9.90;;
2720;SDS011;1368;49.484;11.112;2023-04-25T06:30:30;17.03;;;11.33;;
2720;SDS011;1368;49.484;11.112;2023-04-25T06:32:55;16.37;;;11.57;;
2720;SDS011;1368;49.484;11.112;2023-04-25T06:35:21;14.93;;;11.07;;
2720;SDS011;1368;49.484;11.112;2023-04-25T06:37:46;13.30;;;9.90;;
2720;SDS011;1368;49.484;11.112;2023-04-25T06:40:12;13.30;;;10.63;;
2720;SDS011;1368;49.484;11.112;2023-04-25T06:42:38;15.70;;;10.63;;
2720;SDS011;1368;49.484;11.112;2023-04-25T06:45:03;13.60;;;10.60;;
2720;SDS011;1368;49.484;11.112;2023-04-25T06:47:29;14.37;;;10.73;;
2720;SDS011;1368;49.484;11.112;2023-04-25T06:49:55;15.23;;;10.53;;
2720;SDS011;1368;49.484;11.112;2023-04-25T06:52:20;18.33;;;11.40;;
2720;SDS011;1368;49.484;11.112;2023-04-25T06:54:46;16.77;;;11.60;;
2720;SDS011;1368;49.484;11.112;2023-04-25T06:57:12;22.57;;;11.60;;
2720;SDS011;1368;49.484;11.112;2023-04-25T06:59:37;15.40;;;12.10;;
2720;SDS011;1368;49.484;11.112;2023-04-25T07:02:03;12.50;;;9.57;;
2720;SDS011;1368;49.484;11.112;2023-04-25T07:04:29;14.20;;;10.03;;
2720;SDS011;1368;49.484;11.112;2023-04-25T07:06:55;13.90;;;10.57;;
2720;SDS011;1368;49.484;11.112;2023-04-25T07:09:21;12.73;;;10.53;;
2720;SDS011;1368;49.484;11.112;2023-04-25T07:11:47;13.13;;;9.70;;
2720;SDS011;1368;49.484;11.112;2023-04-25T07:14:12;12.10;;;10.00;;
2720;SDS011;1368;49.484;11.112;2023-04-25T07:16:38;12.80;;;9.60;;
2720;SDS011;1368;49.484;11.112;2023-04-25T07:19:03;11.50;;;8.67;;
2720;SDS011;1368;49.484;11.112;2023-04-25T07:21:29;11.40;;;8.30;;
2720;SDS011;1368;49.484;11.112;2023-04-25T07:23:56;12.97;;;8.50;;
2720;SDS011;1368;49.484;11.112;2023-04-25T07:26:22;7.90;;;5.90;;
2720;SDS011;1368;49.484;11.112;2023-04-25T07:28:48;9.33;;;5.43;;
2720;SDS011;1368;49.484;11.112;2023-04-25T07:31:16;8.23;;;5.00;;
2720;SDS011;1368;49.484;11.112;2023-04-25T07:33:43;7.83;;;5.87;;
2720;SDS011;1368;49.484;11.112;2023-04-25T07:36:10;6.60;;;5.07;;
2720;SDS011;1368;49.484;11.112;2023-04-25T07:38:35;9.60;;;5.90;;
2720;SDS011;1368;49.484;11.112;2023-04-25T07:41:01;10.40;;;6.90;;
2720;SDS011;1368;49.484;11.112;2023-04-25T07:43:26;7.13;;;6.07;;
2720;SDS011;1368;49.484;11.112;2023-04-25T07:45:52;7.07;;;5.90;;
2720;SDS011;1368;49.484;11.112;2023-04-25T07:48:18;9.00;;;6.70;;
2720;SDS011;1368;49.484;11.112;2023-04-25T07:50:43;8.87;;;6.33;;
2720;SDS011;1368;49.484;11.112;2023-04-25T07:53:10;5.97;;;5.07;;
2720;SDS011;1368;49.484;11.112;2023-04-25T07:55:35;8.70;;;6.57;;
2720;SDS011;1368;49.484;11.112;2023-04-25T07:58:04;11.80;;;6.10;;
2720;SDS011;1368;49.484;11.112;2023-04-25T08:00:33;9.63;;;6.27;;
2720;SDS011;1368;49.484;11.112;2023-04-25T08:02:58;9.03;;;5.70;;
2720;SDS011;1368;49.484;11.112;2023-04-25T08:05:24;8.43;;;6.40;;
2720;SDS011;1368;49.484;11.112;2023-04-25T08:07:49;11.87;;;6.97;;
2720;SDS011;1368;49.484;11.112;2023-04-25T08:10:15;11.30;;;7.23;;
2720;SDS011;1368;49.484;11.112;2023-04-25T08:12:41;12.27;;;6.83;;
2720;SDS011;1368;49.484;11.112;2023-04-25T08:15:06;11.87;;;6.80;;
2720;SDS011;1368;49.484;11.112;2023-04-25T08:17:33;10.70;;;7.07;;
2720;SDS011;1368;49.484;11.112;2023-04-25T08:19:58;7.93;;;6.03;;
2720;SDS011;1368;49.484;11.112;2023-04-25T08:22:24;9.93;;;6.27;;
2720;SDS011;1368;49.484;11.112;2023-04-25T08:24:49;8.13;;;6.13;;
2720;SDS011;1368;49.484;11.112;2023-04-25T08:27:15;8.43;;;5.83;;
2720;SDS011;1368;49.484;11.112;2023-04-25T08:29:41;9.77;;;7.20;;
2720;SDS011;1368;49.484;11.112;2023-04-25T08:32:06;6.87;;;5.97;;
2720;SDS011;1368;49.484;11.112;2023-04-25T08:34:32;10.00;;;5.80;;
2720;SDS011;1368;49.484;11.112;2023-04-25T08:36:57;7.53;;;5.13;;
2720;SDS011;1368;49.484;11.112;2023-04-25T08:39:23;13.67;;;5.50;;
2720;SDS011;1368;49.484;11.112;2023-04-25T08:41:49;8.53;;;5.00;;
2720;SDS011;1368;49.484;11.112;2023-04-25T08:44:15;8.33;;;5.30;;
2720;SDS011;1368;49.484;11.112;2023-04-25T08:46:41;9.30;;;6.00;;
2720;SDS011;1368;49.484;11.112;2023-04-25T08:49:08;7.10;;;5.30;;
2720;SDS011;1368;49.484;11.112;2023-04-25T08:51:46;9.20;;;5.60;;
2720;SDS011;1368;49.484;11.112;2023-04-25T08:54:12;8.93;;;5.90;;
2720;SDS011;1368;49.484;11.112;2023-04-25T08:56:47;8.30;;;6.50;;
2720;SDS011;1368;49.484;11.112;2023-04-25T08:59:14;8.73;;;6.50;;
2720;SDS011;1368;49.484;11.112;2023-04-25T09:01:39;8.30;;;6.73;;
2720;SDS011;1368;49.484;11.112;2023-04-25T09:04:05;10.67;;;7.30;;
2720;SDS011;1368;49.484;11.112;2023-04-25T09:06:31;13.87;;;7.10;;
2720;SDS011;1368;49.484;11.112;2023-04-25T09:09:03;10.53;;;7.33;;
2720;SDS011;1368;49.484;11.112;2023-04-25T09:11:31;10.77;;;7.60;;
2720;SDS011;1368;49.484;11.112;2023-04-25T09:14:10;8.67;;;7.50;;
2720;SDS011;1368;49.484;11.112;2023-04-25T09:16:56;11.00;;;7.47;;
2720;SDS011;1368;49.484;11.112;2023-04-25T09:19:23;8.10;;;7.13;;
2720;SDS011;1368;49.484;11.112;2023-04-25T09:21:50;9.30;;;7.33;;
2720;SDS011;1368;49.484;11.112;2023-04-25T09:24:31;8.70;;;6.90;;
2720;SDS011;1368;49.484;11.112;2023-04-25T09:27:01;8.80;;;6.70;;
2720;SDS011;1368;49.484;11.112;2023-04-25T09:29:31;7.23;;;5.83;;
2720;SDS011;1368;49.484;11.112;2023-04-25T09:32:10;7.37;;;6.43;;
2720;SDS011;1368;49.484;11.112;2023-04-25T09:34:40;7.73;;;5.73;;
2720;SDS011;1368;49.484;11.112;2023-04-25T09:37:07;6.93;;;5.67;;
2720;SDS011;1368;49.484;11.112;2023-04-25T09:39:37;8.23;;;4.93;;
2720;SDS011;1368;49.484;11.112;2023-04-25T09:42:03;7.13;;;6.30;;
2720;SDS011;1368;49.484;11.112;2023-04-25T09:44:30;7.97;;;6.20;;
2720;SDS011;1368;49.484;11.112;2023-04-25T09:46:55;6.43;;;5.80;;
2720;SDS011;1368;49.484;11.112;2023-04-25T09:49:22;6.63;;;5.07;;
2720;SDS011;1368;49.484;11.112;2023-04-25T09:51:59;7.00;;;4.70;;
2720;SDS011;1368;49.484;11.112;2023-04-25T09:54:25;11.93;;;6.10;;
2720;SDS011;1368;49.484;11.112;2023-04-25T09:56:51;6.40;;;5.53;;
2720;SDS011;1368;49.484;11.112;2023-04-25T09:59:21;7.60;;;6.20;;
2720;SDS011;1368;49.484;11.112;2023-04-25T10:01:50;8.30;;;6.30;;
2720;SDS011;1368;49.484;11.112;2023-04-25T10:04:21;7.53;;;5.30;;
2720;SDS011;1368;49.484;11.112;2023-04-25T10:06:49;7.40;;;5.00;;
2720;SDS011;1368;49.484;11.112;2023-04-25T10:09:17;7.63;;;5.40;;
2720;SDS011;1368;49.484;11.112;2023-04-25T10:11:45;5.93;;;4.37;;
2720;SDS011;1368;49.484;11.112;2023-04-25T10:14:13;5.40;;;4.30;;
2720;SDS011;1368;49.484;11.112;2023-04-25T10:16:39;6.40;;;4.83;;
2720;SDS011;1368;49.484;11.112;2023-04-25T10:19:06;5.90;;;4.37;;
2720;SDS011;1368;49.484;11.112;2023-04-25T10:21:32;5.67;;;4.10;;
2720;SDS011;1368;49.484;11.112;2023-04-25T10:23:59;3.87;;;2.93;;
2720;SDS011;1368;49.484;11.112;2023-04-25T10:26:26;4.37;;;2.83;;
2720;SDS011;1368;49.484;11.112;2023-04-25T10:28:55;7.00;;;3.40;;
2720;SDS011;1368;49.484;11.112;2023-04-25T10:31:26;4.40;;;2.43;;
2720;SDS011;1368;49.484;11.112;2023-04-25T10:33:52;4.23;;;3.00;;
2720;SDS011;1368;49.484;11.112;2023-04-25T10:36:19;3.73;;;2.40;;
2720;SDS011;1368;49.484;11.112;2023-04-25T10:38:47;6.27;;;3.30;;
2720;SDS011;1368;49.484;11.112;2023-04-25T10:41:15;4.33;;;2.73;;
2720;SDS011;1368;49.484;11.112;2023-04-25T10:43:46;6.87;;;3.30;;
2720;SDS011;1368;49.484;11.112;2023-04-25T10:46:13;5.90;;;3.10;;
2720;SDS011;1368;49.484;11.112;2023-04-25T10:48:49;7.73;;;3.43;;
2720;SDS011;1368;49.484;11.112;2023-04-25T10:51:18;4.90;;;3.20;;
2720;SDS011;1368;49.484;11.112;2023-04-25T10:56:27;5.90;;;2.67;;
2720;SDS011;1368;49.484;11.112;2023-04-25T11:01:41;5.27;;;3.20;;
2720;SDS011;1368;49.484;11.112;2023-04-25T11:04:24;7.40;;;3.07;;
2720;SDS011;1368;49.484;11.112;2023-04-25T11:09:36;4.77;;;3.00;;
2720;SDS011;1368;49.484;11.112;2023-04-25T11:12:04;6.17;;;3.13;;
2720;SDS011;1368;49.484;11.112;2023-04-25T11:14:30;6.10;;;3.27;;
2720;SDS011;1368;49.484;11.112;2023-04-25T11:16:56;5.70;;;3.27;;
2720;SDS011;1368;49.484;11.112;2023-04-25T11:19:23;6.03;;;3.00;;
2720;SDS011;1368;49.484;11.112;2023-04-25T11:21:49;5.00;;;2.53;;
2720;SDS011;1368;49.484;11.112;2023-04-25T11:24:15;3.30;;;2.20;;
2720;SDS011;1368;49.484;11.112;2023-04-25T11:26:42;3.73;;;2.60;;
2720;SDS011;1368;49.484;11.112;2023-04-25T11:29:08;5.20;;;2.40;;
2720;SDS011;1368;49.484;11.112;2023-04-25T11:31:34;3.00;;;2.30;;
2720;SDS011;1368;49.484;11.112;2023-04-25T11:33:59;3.63;;;2.27;;
2720;SDS011;1368;49.484;11.112;2023-04-25T11:36:25;5.43;;;2.80;;
2720;SDS011;1368;49.484;11.112;2023-04-25T11:38:52;4.57;;;3.33;;
2720;SDS011;1368;49.484;11.112;2023-04-25T11:41:18;5.13;;;3.30;;
2720;SDS011;1368;49.484;11.112;2023-04-25T11:43:45;4.60;;;2.83;;
2720;SDS011;1368;49.484;11.112;2023-04-25T11:46:11;4.40;;;2.60;;
2720;SDS011;1368;49.484;11.112;2023-04-25T11:48:39;5.33;;;3.13;;
2720;SDS011;1368;49.484;11.112;2023-04-25T11:51:06;4.03;;;2.83;;
2720;SDS011;1368;49.484;11.112;2023-04-25T11:53:32;9.17;;;3.63;;
2720;SDS011;1368;49.484;11.112;2023-04-25T11:55:57;8.53;;;2.70;;
2720;SDS011;1368;49.484;11.112;2023-04-25T11:58:23;4.00;;;2.47;;
2720;SDS011;1368;49.484;11.112;2023-04-25T12:00:49;3.27;;;2.00;;
2720;SDS011;1368;49.484;11.112;2023-04-25T12:03:14;6.73;;;2.10;;
2720;SDS011;1368;49.484;11.112;2023-04-25T12:05:40;5.03;;;2.17;;
2720;SDS011;1368;49.484;11.112;2023-04-25T12:08:09;3.73;;;1.90;;
2720;SDS011;1368;49.484;11.112;2023-04-25T12:10:39;4.30;;;2.03;;
2720;SDS011;1368;49.484;11.112;2023-04-25T12:15:49;2.90;;;2.00;;
2720;SDS011;1368;49.484;11.112;2023-04-25T12:18:14;3.40;;;2.00;;
2720;SDS011;1368;49.484;11.112;2023-04-25T12:20:43;3.87;;;2.37;;
2720;SDS011;1368;49.484;11.112;2023-04-25T12:23:09;3.40;;;2.20;;
2720;SDS011;1368;49.484;11.112;2023-04-25T12:25:45;4.70;;;2.77;;
2720;SDS011;1368;49.484;11.112;2023-04-25T12:30:56;2.83;;;2.00;;
2720;SDS011;1368;49.484;11.112;2023-04-25T12:33:23;6.00;;;3.63;;
2720;SDS011;1368;49.484;11.112;2023-04-25T12:35:53;3.00;;;2.03;;
2720;SDS011;1368;49.484;11.112;2023-04-25T12:38:26;2.73;;;1.83;;
2720;SDS011;1368;49.484;11.112;2023-04-25T12:40:56;3.80;;;2.07;;
2720;SDS011;1368;49.484;11.112;2023-04-25T12:43:23;6.87;;;2.37;;
2720;SDS011;1368;49.484;11.112;2023-04-25T12:45:49;6.43;;;2.00;;
2720;SDS011;1368;49.484;11.112;2023-04-25T12:48:19;3.80;;;2.47;;
2720;SDS011;1368;49.484;11.112;2023-04-25T12:50:45;3.70;;;2.30;;
2720;SDS011;1368;49.484;11.112;2023-04-25T12:53:13;3.50;;;2.10;;
2720;SDS011;1368;49.484;11.112;2023-04-25T12:55:51;3.60;;;2.07;;
2720;SDS011;1368;49.484;11.112;2023-04-25T12:58:17;3.20;;;2.27;;
2720;SDS011;1368;49.484;11.112;2023-04-25T13:00:44;4.30;;;2.43;;
2720;SDS011;1368;49.484;11.112;2023-04-25T13:03:10;4.50;;;2.70;;
2720;SDS011;1368;49.484;11.112;2023-04-25T13:05:37;4.73;;;2.70;;
2720;SDS011;1368;49.484;11.112;2023-04-25T13:08:03;4.93;;;3.13;;
2720;SDS011;1368;49.484;11.112;2023-04-25T13:10:29;3.93;;;2.03;;
2720;SDS011;1368;49.484;11.112;2023-04-25T13:12:55;4.23;;;2.40;;
2720;SDS011;1368;49.484;11.112;2023-04-25T13:15:20;4.30;;;2.90;;
2720;SDS011;1368;49.484;11.112;2023-04-25T13:17:46;4.40;;;3.07;;
2720;SDS011;1368;49.484;11.112;2023-04-25T13:20:12;4.73;;;2.90;;
2720;SDS011;1368;49.484;11.112;2023-04-25T13:22:39;5.20;;;2.70;;
2720;SDS011;1368;49.484;11.112;2023-04-25T13:25:05;5.00;;;2.90;;
2720;SDS011;1368;49.484;11.112;2023-04-25T13:27:33;3.73;;;2.50;;
2720;SDS011;1368;49.484;11.112;2023-04-25T13:30:00;3.50;;;2.83;;
2720;SDS011;1368;49.484;11.112;2023-04-25T13:32:31;3.90;;;2.37;;
2720;SDS011;1368;49.484;11.112;2023-04-25T13:35:01;6.00;;;2.47;;
2720;SDS011;1368;49.484;11.112;2023-04-25T13:37:27;4.47;;;2.90;;
2720;SDS011;1368;49.484;11.112;2023-04-25T13:39:54;4.17;;;2.80;;
2720;SDS011;1368;49.484;11.112;2023-04-25T13:42:20;5.53;;;3.10;;
2720;SDS011;1368;49.484;11.112;2023-04-25T13:44:46;4.47;;;2.80;;
2720;SDS011;1368;49.484;11.112;2023-04-25T13:47:11;5.80;;;2.87;;
2720;SDS011;1368;49.484;11.112;2023-04-25T13:49:37;3.43;;;2.40;;
2720;SDS011;1368;49.484;11.112;2023-04-25T13:52:02;5.37;;;3.00;;
2720;SDS011;1368;49.484;11.112;2023-04-25T13:54:28;3.60;;;2.60;;
2720;SDS011;1368;49.484;11.112;2023-04-25T13:56:53;4.33;;;3.10;;
2720;SDS011;1368;49.484;11.112;2023-04-25T13:59:23;4.33;;;2.70;;
2720;SDS011;1368;49.484;11.112;2023-04-25T14:01:49;4.90;;;2.97;;
2720;SDS011;1368;49.484;11.112;2023-04-25T14:04:14;6.70;;;2.50;;
2720;SDS011;1368;49.484;11.112;2023-04-25T14:06:40;3.93;;;2.90;;
2720;SDS011;1368;49.484;11.112;2023-04-25T14:09:06;5.20;;;3.37;;
2720;SDS011;1368;49.484;11.112;2023-04-25T14:11:35;5.40;;;3.10;;
2720;SDS011;1368;49.484;11.112;2023-04-25T14:14:03;5.27;;;3.20;;
2720;SDS011;1368;49.484;11.112;2023-04-25T14:16:29;6.17;;;3.17;;
2720;SDS011;1368;49.484;11.112;2023-04-25T14:18:56;5.70;;;3.30;;
2720;SDS011;1368;49.484;11.112;2023-04-25T14:21:22;4.30;;;3.40;;
2720;SDS011;1368;49.484;11.112;2023-04-25T14:23:48;6.23;;;3.00;;
2720;SDS011;1368;49.484;11.112;2023-04-25T14:26:14;4.40;;;3.03;;
2720;SDS011;1368;49.484;11.112;2023-04-25T14:28:39;7.80;;;4.23;;
2720;SDS011;1368;49.484;11.112;2023-04-25T14:31:05;5.33;;;3.57;;
2720;SDS011;1368;49.484;11.112;2023-04-25T14:33:31;5.83;;;3.07;;
2720;SDS011;1368;49.484;11.112;2023-04-25T14:35:56;6.63;;;4.17;;
2720;SDS011;1368;49.484;11.112;2023-04-25T14:38:22;6.60;;;3.63;;
2720;SDS011;1368;49.484;11.112;2023-04-25T14:40:49;9.90;;;4.37;;
2720;SDS011;1368;49.484;11.112;2023-04-25T14:43:15;8.97;;;4.47;;
2720;SDS011;1368;49.484;11.112;2023-04-25T14:45:41;5.80;;;3.80;;
2720;SDS011;1368;49.484;11.112;2023-04-25T14:48:06;7.00;;;3.10;;
2720;SDS011;1368;49.484;11.112;2023-04-25T14:50:32;7.20;;;3.87;;
2720;SDS011;1368;49.484;11.112;2023-04-25T14:52:58;4.80;;;3.17;;
2720;SDS011;1368;49.484;11.112;2023-04-25T14:55:25;4.97;;;3.23;;
2720;SDS011;1368;49.484;11.112;2023-04-25T14:57:52;6.13;;;4.20;;
2720;SDS011;1368;49.484;11.112;2023-04-25T15:00:18;8.17;;;3.67;;
2720;SDS011;1368;49.484;11.112;2023-04-25T15:02:45;5.83;;;3.30;;